COMO2: Grand River, Commerce, OK

Data processed at Wed May 22 2019 23:50


All information presented herein is the property of the government of the United States of America and may be revised or deleted at any time without prior notice.
Dissemination of this information without the expressed written consent of the Public Affairs Office, Tulsa District U.S. Army Corps of Engineers is strictly prohibited.
These data are gathered electronically and, as presented, have not undergone any form of quality control. These data are not guaranteed to be valid or correct.
Go to home page.
Go to station list.
Go to home page.

Upstream stations:

Downstream station:
Previous Day
Next Day
Current Day
    
SHEF ID:       COMO2     Neosho River nr Commerce, OK
STATION TYPE:  
Regulating: Stage =    15.00, Flow =    21743

               PRECIP     STAGE  STAGE(2)  RIV-FLOW  BAT-LOAD
                   in        ft        ft       cfs      volt
              Ccp-Rev   Ccp-Rev   Ccp-Rev   Ccp-Rev   Ccp-Rev
(US/Central)
05/22 00:00      0.00     20.42     20.69     42138     12.57
05/22 01:00      0.00     20.58     20.75     43511     12.57
05/22 02:00      0.00     20.56     20.81     43337     12.49
05/22 03:00      0.00     20.68     20.81     44384     12.49
05/22 04:00      0.00     20.74     20.95     44915     12.49
05/22 05:00      0.00     20.83     21.01     45719     12.49
05/22 06:00      0.00     20.89     20.99     46260     12.49
05/22 07:00      0.00     20.97     21.03     46990     12.49
05/22 08:00      0.00     21.09     21.11     48100     12.73
05/22 09:00      0.00     21.16     21.20     48756     13.29
05/22 10:00      0.00     21.17     21.33     48850     13.05
05/22 11:00      0.00     21.18     21.31     48945     13.05
05/22 12:00      0.00     21.35     21.39     50569     13.29
05/22 13:00      0.00     21.36     21.48     50666     13.29
05/22 14:00      0.00     21.42     21.52     51249     13.29
05/22 15:00      0.00     21.48     21.59     51837     13.29
05/22 16:00      0.00     21.52     21.60     52232     13.29
05/22 17:00      0.00     21.62     21.63     53228     13.29
05/22 18:00      0.00     21.64     21.69     53429     13.05
05/22 19:00      0.05     21.67     21.81     53732     12.81
05/22 20:00      0.34     21.79     21.86     54953     12.73
05/22 21:00      0.00     21.85     21.90     55572     12.73
05/22 22:00      0.00     21.96     21.98     56718     12.65
05/22 23:00      0.00     22.05     22.06     57669     12.65